Time;durP1;ratioP1;P1;durP2;ratioP2;P2;SDS_P1;SDS_P2;PMS_P1;PMS_P2;Temp;Humidity;BMP_temperature;BMP_pressure;BME280_temperature;BME280_humidity;BME280_pressure;Samples;Min_cycle;Max_cycle;Signal;HPM_P1;HPM_P2
2023/06/10 00:01:04;;;;;;;74.57;36.40;;;;;;;;;;6155064;28;20508;-84
2023/06/10 00:04:04;;;;;;;62.20;32.05;;;;;;;;;;6157454;28;20015;-84
2023/06/10 00:07:08;;;;;;;127.47;54.43;;;;;;;;;;6161937;28;20401;-85
2023/06/10 00:10:10;;;;;;;118.95;40.03;;;;;;;;;;6162153;28;20030;-85
2023/06/10 00:13:12;;;;;;;82.57;39.10;;;;;;;;;;6157485;28;20098;-85
2023/06/10 00:16:12;;;;;;;78.40;39.85;;;;;;;;;;6152837;28;20784;-84
2023/06/10 00:19:16;;;;;;;113.87;53.07;;;;;;;;;;6163912;28;20031;-85
2023/06/10 00:22:16;;;;;;;147.07;72.97;;;;;;;;;;6158260;28;20052;-84
2023/06/10 00:25:16;;;;;;;106.10;49.80;;;;;;;;;;6159978;28;20504;-84
2023/06/10 00:28:16;;;;;;;86.53;43.37;;;;;;;;;;6157202;28;20027;-85
2023/06/10 00:31:17;;;;;;;81.57;40.60;;;;;;;;;;6168073;28;20034;-84
2023/06/10 00:34:17;;;;;;;375.07;149.40;;;;;;;;;;6164696;28;20630;-84
2023/06/10 00:37:17;;;;;;;200.37;81.40;;;;;;;;;;6165805;28;20026;-84
2023/06/10 00:40:18;;;;;;;75.57;39.57;;;;;;;;;;6157810;28;20062;-85
2023/06/10 00:43:18;;;;;;;78.40;40.33;;;;;;;;;;6154688;28;20019;-84
2023/06/10 00:46:18;;;;;;;106.57;51.07;;;;;;;;;;6162338;28;20019;-84
2023/06/10 00:49:19;;;;;;;89.37;41.77;;;;;;;;;;6150477;28;20862;-84
2023/06/10 00:52:20;;;;;;;95.73;44.97;;;;;;;;;;6153926;28;20023;-85
2023/06/10 00:55:20;;;;;;;125.77;68.50;;;;;;;;;;6171207;28;20007;-87
2023/06/10 00:58:21;;;;;;;107.27;53.27;;;;;;;;;;6189624;28;20651;-89
2023/06/10 01:01:21;;;;;;;100.37;51.80;;;;;;;;;;6190262;28;20015;-87
2023/06/10 01:04:21;;;;;;;284.23;143.10;;;;;;;;;;6184468;28;20062;-89
2023/06/10 01:07:28;;;;;;;138.17;77.00;;;;;;;;;;6200122;28;20026;-88
2023/06/10 01:10:32;;;;;;;269.10;130.73;;;;;;;;;;6194577;28;20070;-89
2023/06/10 01:13:40;;;;;;;390.50;192.18;;;;;;;;;;6183602;28;20025;-90
2023/06/10 01:16:45;;;;;;;255.68;130.75;;;;;;;;;;6177866;28;20023;-90
2023/06/10 01:19:54;;;;;;;467.63;200.02;;;;;;;;;;6176615;28;20034;-90
2023/06/10 01:22:59;;;;;;;650.33;292.88;;;;;;;;;;6177870;28;20105;-88
2023/06/10 01:26:02;;;;;;;508.52;264.02;;;;;;;;;;6172391;28;20017;-90
2023/06/10 01:29:17;;;;;;;444.40;221.88;;;;;;;;;;6184983;28;20019;-92
2023/06/10 01:32:39;;;;;;;921.85;302.70;;;;;;;;;;6186395;28;20027;-90
2023/06/10 01:35:41;;;;;;;350.90;182.93;;;;;;;;;;6174105;28;20035;-91
2023/06/10 01:38:45;;;;;;;312.08;138.20;;;;;;;;;;6171262;28;20594;-91
2023/06/10 01:41:45;;;;;;;432.27;153.35;;;;;;;;;;6170250;28;20047;-89
2023/06/10 01:44:45;;;;;;;251.80;120.37;;;;;;;;;;6161796;28;20029;-90
2023/06/10 01:47:46;;;;;;;586.93;320.03;;;;;;;;;;6171972;28;20180;-91
2023/06/10 01:50:46;;;;;;;137.17;74.67;;;;;;;;;;6179524;28;20022;-88
2023/06/10 01:53:46;;;;;;;252.30;124.07;;;;;;;;;;6161704;28;20058;-89
2023/06/10 01:56:46;;;;;;;227.17;127.20;;;;;;;;;;6155282;28;20545;-85
2023/06/10 01:59:46;;;;;;;255.90;122.13;;;;;;;;;;6155871;28;20023;-86
2023/06/10 02:02:48;;;;;;;371.27;220.57;;;;;;;;;;6164807;28;20023;-86
2023/06/10 02:05:48;;;;;;;294.95;156.70;;;;;;;;;;6169838;28;20553;-88
2023/06/10 02:08:49;;;;;;;421.63;224.23;;;;;;;;;;6158148;28;20047;-88
2023/06/10 02:11:49;;;;;;;1999.90;794.27;;;;;;;;;;6151053;28;20047;-90
2023/06/10 02:14:50;;;;;;;693.67;398.07;;;;;;;;;;6158438;28;20381;-90
2023/06/10 02:17:51;;;;;;;296.35;150.10;;;;;;;;;;6162882;28;20051;-89
2023/06/10 02:20:51;;;;;;;183.40;110.23;;;;;;;;;;6155820;28;20019;-89
2023/06/10 02:23:52;;;;;;;521.97;229.77;;;;;;;;;;6157320;28;20031;-89
2023/06/10 02:26:52;;;;;;;190.70;103.33;;;;;;;;;;6156832;28;20019;-89
2023/06/10 02:29:53;;;;;;;219.17;114.37;;;;;;;;;;6181303;28;20018;-90
2023/06/10 02:32:53;;;;;;;189.20;129.50;;;;;;;;;;6177263;28;20027;-90
2023/06/10 02:35:54;;;;;;;296.20;107.83;;;;;;;;;;6180924;28;20047;-89
2023/06/10 02:38:55;;;;;;;141.77;85.40;;;;;;;;;;6165587;28;20026;-90
2023/06/10 02:41:55;;;;;;;206.40;125.30;;;;;;;;;;6155726;28;20039;-90
2023/06/10 02:44:55;;;;;;;283.83;146.17;;;;;;;;;;6170839;28;20155;-89
2023/06/10 02:47:56;;;;;;;104.80;51.38;;;;;;;;;;6178410;28;20034;-90
2023/06/10 02:50:56;;;;;;;75.33;42.67;;;;;;;;;;6196746;28;20023;-90
2023/06/10 02:53:56;;;;;;;290.87;156.77;;;;;;;;;;6176787;28;20015;-90
2023/06/10 02:56:56;;;;;;;101.57;50.53;;;;;;;;;;6178077;28;20458;-90
2023/06/10 02:59:58;;;;;;;91.32;48.50;;;;;;;;;;6166527;28;20027;-90
2023/06/10 03:03:02;;;;;;;109.88;56.85;;;;;;;;;;6168875;28;20015;-90
2023/06/10 03:06:02;;;;;;;87.38;44.33;;;;;;;;;;6176635;28;20427;-90
2023/06/10 03:09:04;;;;;;;85.23;44.43;;;;;;;;;;6180123;28;20027;-91
2023/06/10 03:12:04;;;;;;;774.42;436.02;;;;;;;;;;6168986;28;20545;-91
2023/06/10 03:15:05;;;;;;;482.70;278.40;;;;;;;;;;6157255;28;20029;-90
2023/06/10 03:18:06;;;;;;;458.97;203.97;;;;;;;;;;6171881;28;20019;-91
2023/06/10 03:21:08;;;;;;;417.58;207.45;;;;;;;;;;6169858;28;20122;-90
2023/06/10 03:24:08;;;;;;;403.95;183.32;;;;;;;;;;6164444;28;20027;-90
2023/06/10 03:27:13;;;;;;;121.17;59.47;;;;;;;;;;6167397;28;20022;-91
2023/06/10 03:30:13;;;;;;;146.00;61.25;;;;;;;;;;6172251;28;20015;-91
2023/06/10 03:33:14;;;;;;;169.77;80.53;;;;;;;;;;6171776;28;20030;-91
2023/06/10 03:36:15;;;;;;;111.53;53.00;;;;;;;;;;6162350;28;20049;-91
2023/06/10 03:39:15;;;;;;;148.57;65.07;;;;;;;;;;6173993;28;20031;-91
2023/06/10 03:42:16;;;;;;;103.77;49.37;;;;;;;;;;6166485;28;20384;-92
2023/06/10 03:45:16;;;;;;;128.13;56.77;;;;;;;;;;6177431;28;20375;-91
2023/06/10 03:48:16;;;;;;;135.93;70.77;;;;;;;;;;6180185;28;20019;-92
2023/06/10 03:51:16;;;;;;;100.37;46.47;;;;;;;;;;6171595;28;20078;-92
2023/06/10 03:54:18;;;;;;;204.30;80.27;;;;;;;;;;6185440;28;20011;-89
2023/06/10 03:57:18;;;;;;;226.55;103.82;;;;;;;;;;6192668;28;20031;-91
2023/06/10 04:00:21;;;;;;;302.43;113.73;;;;;;;;;;6175834;28;20038;-90
2023/06/10 04:22:19;;;;;;;93.15;39.65;;;;;;;;;;6281460;23;20047;-93
2023/06/10 04:25:20;;;;;;;81.13;37.27;;;;;;;;;;6169613;28;20089;-92
2023/06/10 04:28:20;;;;;;;78.77;40.00;;;;;;;;;;6168239;28;20027;-92
2023/06/10 04:31:20;;;;;;;77.73;35.37;;;;;;;;;;6169747;28;20034;-93
2023/06/10 04:34:20;;;;;;;69.40;30.27;;;;;;;;;;6186027;28;20497;-93
2023/06/10 04:37:21;;;;;;;75.80;32.73;;;;;;;;;;6170526;28;20119;-93
2023/06/10 04:40:21;;;;;;;75.17;33.83;;;;;;;;;;6187274;28;20106;-92
2023/06/10 04:43:21;;;;;;;63.83;33.23;;;;;;;;;;6168857;28;20018;-93
2023/06/10 04:46:22;;;;;;;66.07;32.30;;;;;;;;;;6172486;28;20027;-93
2023/06/10 04:49:22;;;;;;;68.50;31.93;;;;;;;;;;6163806;28;20030;-93
2023/06/10 04:52:23;;;;;;;55.57;29.03;;;;;;;;;;6172696;28;20023;-92
2023/06/10 04:55:23;;;;;;;78.72;33.53;;;;;;;;;;6166723;28;20026;-92
2023/06/10 04:58:27;;;;;;;66.87;29.87;;;;;;;;;;6176373;28;20026;-94
2023/06/10 05:01:30;;;;;;;61.78;29.23;;;;;;;;;;6152420;28;20125;-93
2023/06/10 05:04:31;;;;;;;76.18;34.78;;;;;;;;;;6172516;28;20110;-92
2023/06/10 05:13:52;;;;;;;76.85;34.92;;;;;;;;;;6511007;23;20524;-89
2023/06/10 05:16:52;;;;;;;153.17;53.37;;;;;;;;;;6156147;28;20383;-89
2023/06/10 05:19:53;;;;;;;76.77;33.97;;;;;;;;;;6156053;28;20027;-89
2023/06/10 05:22:53;;;;;;;58.27;29.23;;;;;;;;;;6174019;28;20833;-88
2023/06/10 05:25:54;;;;;;;43.77;21.77;;;;;;;;;;6157111;28;20027;-89
2023/06/10 05:28:54;;;;;;;59.53;26.20;;;;;;;;;;6155382;28;20031;-91
2023/06/10 05:31:56;;;;;;;62.33;30.97;;;;;;;;;;6155702;28;20039;-90
2023/06/10 05:34:57;;;;;;;70.80;31.98;;;;;;;;;;6154484;28;20389;-90
2023/06/10 05:37:57;;;;;;;61.93;28.57;;;;;;;;;;6155192;28;20109;-90
2023/06/10 05:40:58;;;;;;;52.50;25.60;;;;;;;;;;6179876;28;20014;-90
2023/06/10 05:43:59;;;;;;;60.35;26.42;;;;;;;;;;6159568;28;20082;-91
2023/06/10 05:46:59;;;;;;;58.67;28.60;;;;;;;;;;6172587;28;20018;-91
2023/06/10 05:49:59;;;;;;;53.83;27.03;;;;;;;;;;6172014;28;20030;-90
2023/06/10 05:53:00;;;;;;;58.50;29.37;;;;;;;;;;6181196;28;20018;-90
2023/06/10 05:56:00;;;;;;;54.75;27.77;;;;;;;;;;6150493;28;20022;-90
2023/06/10 05:59:00;;;;;;;58.37;28.43;;;;;;;;;;6173261;28;20022;-91
2023/06/10 06:02:00;;;;;;;63.53;30.10;;;;;;;;;;6154620;28;20023;-90
2023/06/10 06:05:00;;;;;;;61.47;30.70;;;;;;;;;;6154863;28;20015;-89
2023/06/10 06:08:04;;;;;;;67.40;32.23;;;;;;;;;;6169170;28;20389;-89
2023/06/10 06:11:04;;;;;;;72.22;30.67;;;;;;;;;;6143114;28;20500;-90
2023/06/10 06:14:05;;;;;;;60.10;28.87;;;;;;;;;;6126024;28;20044;-89
2023/06/10 06:17:05;;;;;;;63.20;29.63;;;;;;;;;;6137775;28;20014;-89
2023/06/10 06:20:06;;;;;;;70.60;32.57;;;;;;;;;;6131413;28;20024;-89
2023/06/10 06:23:08;;;;;;;63.83;29.73;;;;;;;;;;6129756;28;20023;-89
2023/06/10 06:26:08;;;;;;;59.03;29.75;;;;;;;;;;6135525;28;20065;-90
2023/06/10 06:29:10;;;;;;;60.27;27.63;;;;;;;;;;6136853;29;20070;-90
2023/06/10 06:32:10;;;;;;;;;;;;;;;;;;6136084;28;20015;-91
2023/06/10 06:35:10;;;;;;;69.30;32.75;;;;;;;;;;6134856;28;19914;-90
2023/06/10 06:38:10;;;;;;;78.10;34.23;;;;;;;;;;6134368;28;20062;-90
2023/06/10 06:41:11;;;;;;;66.37;32.70;;;;;;;;;;6158239;28;20015;-91
2023/06/10 06:44:11;;;;;;;62.23;29.53;;;;;;;;;;6130584;28;20055;-91
2023/06/10 06:47:11;;;;;;;60.30;29.95;;;;;;;;;;6141743;28;20058;-91
2023/06/10 06:50:11;;;;;;;64.10;30.73;;;;;;;;;;6132900;29;20054;-90
2023/06/10 06:53:11;;;;;;;62.47;26.70;;;;;;;;;;6130351;29;20024;-90
2023/06/10 06:56:12;;;;;;;58.93;31.47;;;;;;;;;;6148541;28;20102;-90
2023/06/10 06:59:13;;;;;;;65.23;31.10;;;;;;;;;;6134628;28;20033;-91
2023/06/10 07:02:14;;;;;;;61.45;30.98;;;;;;;;;;6161859;28;20012;-92
2023/06/10 07:05:14;;;;;;;62.17;32.33;;;;;;;;;;6163077;23;20429;-87
2023/06/10 07:08:14;;;;;;;62.43;33.03;;;;;;;;;;6131245;28;20039;-86
2023/06/10 07:11:15;;;;;;;58.60;29.73;;;;;;;;;;6126539;29;20071;-85
2023/06/10 07:14:15;;;;;;;58.40;31.43;;;;;;;;;;6156548;28;20713;-85
2023/06/10 07:17:15;;;;;;;66.83;33.57;;;;;;;;;;6129517;29;20378;-87
2023/06/10 07:20:15;;;;;;;55.97;30.33;;;;;;;;;;6136060;29;20182;-89
2023/06/10 07:23:15;;;;;;;62.03;32.73;;;;;;;;;;6152383;28;20039;-88
2023/06/10 07:26:16;;;;;;;56.40;28.63;;;;;;;;;;6150817;28;20294;-87
2023/06/10 07:29:16;;;;;;;64.47;31.83;;;;;;;;;;6149462;28;20035;-85
2023/06/10 07:32:16;;;;;;;63.80;30.85;;;;;;;;;;6150815;28;20082;-85
2023/06/10 07:35:16;;;;;;;64.77;32.00;;;;;;;;;;6150523;28;20035;-84
2023/06/10 07:38:17;;;;;;;56.77;32.80;;;;;;;;;;6150228;28;20493;-84
2023/06/10 07:41:17;;;;;;;58.17;30.53;;;;;;;;;;6140415;28;20030;-84
2023/06/10 07:44:18;;;;;;;66.47;35.67;;;;;;;;;;6151697;28;20062;-84
2023/06/10 07:47:18;;;;;;;58.53;34.22;;;;;;;;;;6148722;28;20458;-85
2023/06/10 07:50:18;;;;;;;56.28;32.90;;;;;;;;;;6154128;28;20016;-85
2023/06/10 07:53:18;;;;;;;52.70;30.90;;;;;;;;;;6148820;28;20453;-85
2023/06/10 07:56:20;;;;;;;59.33;32.72;;;;;;;;;;6131915;28;20537;-84
2023/06/10 07:59:20;;;;;;;56.58;35.70;;;;;;;;;;6148716;28;20038;-85
2023/06/10 08:02:20;;;;;;;64.50;33.33;;;;;;;;;;6149822;28;20520;-85
2023/06/10 08:05:21;;;;;;;54.13;32.05;;;;;;;;;;6150998;28;20055;-86
2023/06/10 08:08:21;;;;;;;50.37;29.87;;;;;;;;;;6150003;28;20065;-85
2023/06/10 08:11:21;;;;;;;60.67;32.67;;;;;;;;;;6148466;28;20031;-85
2023/06/10 08:14:21;;;;;;;50.67;30.50;;;;;;;;;;6149484;28;20025;-85
2023/06/10 08:17:22;;;;;;;51.90;32.20;;;;;;;;;;6149291;28;20035;-85
2023/06/10 08:20:22;;;;;;;46.60;31.10;;;;;;;;;;6148905;28;20030;-84
2023/06/10 08:23:22;;;;;;;48.73;32.87;;;;;;;;;;6131702;29;20035;-85
2023/06/10 08:26:23;;;;;;;47.00;32.77;;;;;;;;;;6147951;28;20099;-85
2023/06/10 08:29:23;;;;;;;49.33;32.63;;;;;;;;;;6148672;28;20031;-85
2023/06/10 08:32:23;;;;;;;58.80;37.03;;;;;;;;;;6147870;28;20023;-85
2023/06/10 08:35:24;;;;;;;46.40;36.20;;;;;;;;;;6147968;28;20046;-85
2023/06/10 08:38:24;;;;;;;44.10;31.17;;;;;;;;;;6148050;28;20140;-85
2023/06/10 08:41:26;;;;;;;46.63;33.83;;;;;;;;;;6133677;29;20034;-85
2023/06/10 08:44:30;;;;;;;48.38;33.08;;;;;;;;;;6151668;28;20030;-85
2023/06/10 08:47:35;;;;;;;47.05;35.80;;;;;;;;;;6149267;28;20031;-86
2023/06/10 08:50:39;;;;;;;40.33;33.22;;;;;;;;;;6149610;29;20077;-85
2023/06/10 08:53:46;;;;;;;42.50;33.13;;;;;;;;;;6149443;29;20027;-86
2023/06/10 08:56:48;;;;;;;41.55;35.03;;;;;;;;;;6150506;28;20110;-86
2023/06/10 08:59:49;;;;;;;38.92;34.28;;;;;;;;;;6135287;28;20027;-86
2023/06/10 09:02:50;;;;;;;48.37;38.60;;;;;;;;;;6137300;29;20047;-87
2023/06/10 09:05:50;;;;;;;47.33;39.42;;;;;;;;;;6147164;28;20038;-89
2023/06/10 09:24:41;;;;;;;38.97;34.20;;;;;;;;;;6482618;23;20126;-89
2023/06/10 09:27:48;;;;;;;41.23;33.77;;;;;;;;;;6155575;28;20091;-91
2023/06/10 09:30:48;;;;;;;39.60;33.63;;;;;;;;;;6321681;23;20086;-91
2023/06/10 09:33:49;;;;;;;42.35;34.20;;;;;;;;;;6144640;28;20426;-91
2023/06/10 09:36:49;;;;;;;41.20;35.40;;;;;;;;;;6182164;28;20034;-90
2023/06/10 09:40:01;;;;;;;36.77;31.73;;;;;;;;;;6172642;28;20043;-90
2023/06/10 09:43:01;;;;;;;35.05;30.00;;;;;;;;;;6172579;28;20038;-89
2023/06/10 09:46:01;;;;;;;29.73;26.47;;;;;;;;;;6190643;28;20031;-90
2023/06/10 09:49:01;;;;;;;37.00;31.57;;;;;;;;;;6155366;28;20031;-89
2023/06/10 09:52:05;;;;;;;37.50;31.20;;;;;;;;;;6294829;23;20062;-89
2023/06/10 09:55:07;;;;;;;33.88;30.20;;;;;;;;;;6160168;28;20027;-88
2023/06/10 09:58:07;;;;;;;25.25;22.48;;;;;;;;;;6187138;28;20042;-89
2023/06/10 10:01:12;;;;;;;21.83;19.77;;;;;;;;;;6177817;28;20058;-89
2023/06/10 10:04:12;;;;;;;23.88;21.40;;;;;;;;;;6174282;28;20374;-90
2023/06/10 10:07:12;;;;;;;27.63;23.60;;;;;;;;;;6175975;28;20034;-90
2023/06/10 10:10:13;;;;;;;23.73;21.43;;;;;;;;;;6149342;28;20027;-89
2023/06/10 10:13:14;;;;;;;;;;;;;;;;;;6170244;28;20023;-88
2023/06/10 10:16:15;;;;;;;25.55;22.98;;;;;;;;;;6159544;28;19941;-90
2023/06/10 10:19:20;;;;;;;26.52;23.83;;;;;;;;;;6171812;28;20065;-89
2023/06/10 10:22:25;;;;;;;26.92;24.23;;;;;;;;;;6165075;28;20032;-89
2023/06/10 10:25:31;;;;;;;27.10;24.33;;;;;;;;;;6171648;28;20027;-90
2023/06/10 10:28:41;;;;;;;28.05;24.88;;;;;;;;;;6163860;28;20029;-89
2023/06/10 10:31:42;;;;;;;22.75;20.40;;;;;;;;;;6157405;28;20032;-89
2023/06/10 10:34:42;;;;;;;;;;;;;;;;;;6159041;28;20102;-89
2023/06/10 10:37:42;;;;;;;17.83;15.82;;;;;;;;;;6161949;28;20385;-88
2023/06/10 10:40:44;;;;;;;21.33;18.17;;;;;;;;;;6168129;28;20089;-89
2023/06/10 10:43:46;;;;;;;16.95;15.25;;;;;;;;;;6148719;28;20035;-90
2023/06/10 10:46:50;;;;;;;16.95;15.15;;;;;;;;;;6160101;28;20082;-90
2023/06/10 10:49:52;;;;;;;16.35;14.60;;;;;;;;;;6166154;28;20073;-89
2023/06/10 10:52:56;;;;;;;16.45;13.35;;;;;;;;;;6173140;28;20054;-89
2023/06/10 10:55:59;;;;;;;17.75;15.90;;;;;;;;;;6177865;28;20082;-87
2023/06/10 10:59:05;;;;;;;18.05;14.30;;;;;;;;;;6164356;28;20026;-87
2023/06/10 11:02:06;;;;;;;14.13;12.60;;;;;;;;;;6152166;28;20019;-87
2023/06/10 11:05:07;;;;;;;15.43;13.93;;;;;;;;;;6161157;28;20497;-90
2023/06/10 11:08:08;;;;;;;17.13;15.32;;;;;;;;;;6170110;28;20089;-88
2023/06/10 11:11:08;;;;;;;;;;;;;;;;;;6169628;28;20485;-89
2023/06/10 11:14:09;;;;;;;15.82;12.68;;;;;;;;;;6175469;28;19915;-88
2023/06/10 11:17:18;;;;;;;17.50;13.52;;;;;;;;;;6149078;28;20088;-88
2023/06/10 11:20:38;;;;;;;12.40;10.32;;;;;;;;;;6147954;28;20137;-89
2023/06/10 11:23:39;;;;;;;13.25;11.60;;;;;;;;;;6164242;28;20054;-88
2023/06/10 11:26:43;;;;;;;15.18;11.25;;;;;;;;;;6177142;28;20018;-88
2023/06/10 11:30:07;;;;;;;13.75;11.15;;;;;;;;;;6157352;28;20023;-87
2023/06/10 11:33:08;;;;;;;15.00;11.20;;;;;;;;;;6155871;28;20066;-89
2023/06/10 11:36:08;;;;;;;15.70;10.23;;;;;;;;;;6162080;28;20034;-88
2023/06/10 11:39:08;;;;;;;11.33;8.70;;;;;;;;;;6166378;28;20028;-89
2023/06/10 11:42:09;;;;;;;12.80;9.83;;;;;;;;;;6168086;28;20077;-89
2023/06/10 11:45:09;;;;;;;13.07;9.77;;;;;;;;;;6164854;28;20340;-88
2023/06/10 11:48:10;;;;;;;11.07;8.43;;;;;;;;;;6152907;28;20026;-89
2023/06/10 11:51:10;;;;;;;11.93;8.70;;;;;;;;;;6163838;28;20505;-88
2023/06/10 11:54:10;;;;;;;11.50;7.37;;;;;;;;;;6159021;28;20015;-89
2023/06/10 11:57:10;;;;;;;11.07;8.93;;;;;;;;;;6152786;28;20027;-90
2023/06/10 12:00:11;;;;;;;10.47;7.67;;;;;;;;;;6171932;28;20014;-89
2023/06/10 12:03:11;;;;;;;10.53;7.40;;;;;;;;;;6139175;28;20027;-89
2023/06/10 12:06:11;;;;;;;10.13;7.37;;;;;;;;;;6171950;28;20016;-89
2023/06/10 12:09:18;;;;;;;12.52;8.02;;;;;;;;;;6167227;28;20038;-89
2023/06/10 12:12:19;;;;;;;10.10;7.68;;;;;;;;;;6171550;28;20025;-90
2023/06/10 12:15:25;;;;;;;13.05;10.13;;;;;;;;;;6159812;28;20498;-89
2023/06/10 12:18:26;;;;;;;9.93;7.13;;;;;;;;;;6170528;28;20089;-89
2023/06/10 12:21:26;;;;;;;8.87;7.87;;;;;;;;;;6152163;28;20027;-90
2023/06/10 12:24:27;;;;;;;8.02;5.93;;;;;;;;;;6177050;28;20011;-90
2023/06/10 12:27:29;;;;;;;11.25;6.80;;;;;;;;;;6155894;28;20031;-89
2023/06/10 12:30:30;;;;;;;13.80;7.03;;;;;;;;;;6138411;28;20038;-88
2023/06/10 12:33:31;;;;;;;;;;;;;;;;;;6171521;28;20023;-89
2023/06/10 12:36:32;;;;;;;12.73;7.32;;;;;;;;;;6171274;28;19911;-87
2023/06/10 12:39:33;;;;;;;9.30;7.07;;;;;;;;;;6163840;28;20011;-86
2023/06/10 12:42:35;;;;;;;13.57;7.18;;;;;;;;;;6163487;28;20042;-86
2023/06/10 12:45:38;;;;;;;8.75;6.13;;;;;;;;;;6144274;28;20106;-87
2023/06/10 12:48:48;;;;;;;8.70;6.10;;;;;;;;;;6160160;28;20023;-86
2023/06/10 12:51:49;;;;;;;8.40;6.40;;;;;;;;;;6127437;29;20052;-87
2023/06/10 12:54:49;;;;;;;;;;;;;;;;;;6114912;29;20110;-86
2023/06/10 12:57:50;;;;;;;7.63;5.32;;;;;;;;;;6103642;29;19923;-88
2023/06/10 13:00:52;;;;;;;7.78;5.32;;;;;;;;;;6101600;29;20028;-87
2023/06/10 13:03:52;;;;;;;8.75;5.95;;;;;;;;;;6106742;29;20016;-87
2023/06/10 13:06:53;;;;;;;;;;;;;;;;;;6114894;29;20023;-87
2023/06/10 13:09:53;;;;;;;8.90;5.53;;;;;;;;;;6110715;29;19923;-87
2023/06/10 13:12:56;;;;;;;;;;;;;;;;;;6112841;29;20039;-87
2023/06/10 13:15:56;;;;;;;9.40;5.22;;;;;;;;;;6113266;29;19911;-87
2023/06/10 13:18:57;;;;;;;6.57;4.53;;;;;;;;;;6119040;29;20074;-87
2023/06/10 13:21:57;;;;;;;7.43;4.47;;;;;;;;;;6109321;29;20554;-87
2023/06/10 13:24:57;;;;;;;9.47;4.10;;;;;;;;;;6109417;29;20023;-88
2023/06/10 13:27:58;;;;;;;7.30;5.38;;;;;;;;;;6107820;29;20111;-86
2023/06/10 13:30:58;;;;;;;6.93;5.00;;;;;;;;;;6114326;29;20035;-88
2023/06/10 13:33:58;;;;;;;6.20;4.70;;;;;;;;;;6115487;29;20028;-87
2023/06/10 13:36:59;;;;;;;5.68;4.35;;;;;;;;;;6109921;29;20032;-87
2023/06/10 13:40:00;;;;;;;4.75;3.97;;;;;;;;;;6125150;29;20024;-87
2023/06/10 13:43:00;;;;;;;5.30;3.58;;;;;;;;;;6115180;29;20034;-87
2023/06/10 13:46:00;;;;;;;5.25;3.70;;;;;;;;;;6117822;29;20024;-88
2023/06/10 13:49:01;;;;;;;5.03;4.33;;;;;;;;;;6114372;29;20030;-87
2023/06/10 13:52:01;;;;;;;5.93;4.03;;;;;;;;;;6102241;29;20044;-86
2023/06/10 13:55:01;;;;;;;5.60;4.25;;;;;;;;;;6112921;29;20272;-87
2023/06/10 13:58:02;;;;;;;5.47;4.00;;;;;;;;;;6103333;29;20432;-86
2023/06/10 14:01:02;;;;;;;7.23;4.10;;;;;;;;;;6104222;29;20031;-87
2023/06/10 14:04:02;;;;;;;;;;;;;;;;;;6118489;29;20320;-87
2023/06/10 14:07:02;;;;;;;14.90;6.20;;;;;;;;;;6105957;29;20333;-89
2023/06/10 14:10:03;;;;;;;;;;;;;;;;;;6110071;29;20024;-89
2023/06/10 14:13:03;;;;;;;8.73;5.10;;;;;;;;;;6105349;29;19922;-89
2023/06/10 14:16:03;;;;;;;7.83;5.40;;;;;;;;;;6102594;29;20161;-89
2023/06/10 14:19:03;;;;;;;8.67;4.90;;;;;;;;;;6101105;29;20277;-90
2023/06/10 14:22:04;;;;;;;13.15;7.93;;;;;;;;;;6112546;29;20096;-91
2023/06/10 14:25:04;;;;;;;16.30;9.63;;;;;;;;;;6097635;29;20098;-86
2023/06/10 14:28:04;;;;;;;17.57;9.97;;;;;;;;;;6112482;29;20019;-89
2023/06/10 14:31:04;;;;;;;18.83;11.43;;;;;;;;;;6095950;29;20502;-88
2023/06/10 14:34:07;;;;;;;15.87;8.50;;;;;;;;;;6117267;29;20063;-89
2023/06/10 14:37:07;;;;;;;15.18;11.48;;;;;;;;;;6109233;29;20039;-89
2023/06/10 14:40:08;;;;;;;16.37;11.40;;;;;;;;;;6127176;29;20683;-89
2023/06/10 14:43:11;;;;;;;17.33;12.33;;;;;;;;;;6102927;29;20040;-91
2023/06/10 14:46:11;;;;;;;19.20;14.65;;;;;;;;;;6125838;29;20027;-90
2023/06/10 14:49:11;;;;;;;18.03;14.20;;;;;;;;;;6123147;29;20048;-88
2023/06/10 14:52:15;;;;;;;20.00;14.37;;;;;;;;;;6196539;23;20070;-87
2023/06/10 14:55:16;;;;;;;20.38;15.75;;;;;;;;;;6164089;28;20472;-87
2023/06/10 14:58:16;;;;;;;22.17;17.03;;;;;;;;;;6175838;28;20023;-87
2023/06/10 15:01:16;;;;;;;29.23;22.90;;;;;;;;;;6176273;28;20030;-87
2023/06/10 15:04:16;;;;;;;32.47;25.30;;;;;;;;;;6192731;28;20054;-86
2023/06/10 15:07:17;;;;;;;38.20;26.13;;;;;;;;;;6181920;28;20033;-89
2023/06/10 15:13:25;;;;;;;43.90;32.30;;;;;;;;;;6162386;28;20078;-90
2023/06/10 15:16:26;;;;;;;45.63;33.13;;;;;;;;;;6159874;28;20023;-90
2023/06/10 15:19:26;;;;;;;40.83;29.60;;;;;;;;;;6139740;28;20141;-91
2023/06/10 15:22:27;;;;;;;33.17;24.40;;;;;;;;;;6139145;28;20034;-90
2023/06/10 15:25:27;;;;;;;34.17;23.87;;;;;;;;;;6145691;28;20027;-89
2023/06/10 15:28:28;;;;;;;25.77;21.17;;;;;;;;;;6169357;28;20018;-88
2023/06/10 15:31:30;;;;;;;;;;;;;;;;;;6143822;28;20584;-88
2023/06/10 15:34:30;;;;;;;23.83;18.33;;;;;;;;;;6157853;28;20024;-88
2023/06/10 15:37:30;;;;;;;23.77;18.33;;;;;;;;;;6150801;28;20027;-89
2023/06/10 15:40:30;;;;;;;18.80;15.67;;;;;;;;;;6147142;28;20026;-88
2023/06/10 15:43:31;;;;;;;21.17;16.03;;;;;;;;;;6143386;28;20027;-90
2023/06/10 15:46:31;;;;;;;25.77;15.97;;;;;;;;;;6152676;28;20110;-91
2023/06/10 15:49:31;;;;;;;18.77;14.17;;;;;;;;;;6146519;28;20023;-91
2023/06/10 15:52:33;;;;;;;9.13;6.80;;;;;;;;;;6155688;28;20026;-90
2023/06/10 15:55:33;;;;;;;;;;;;;;;;;;6161242;28;20023;-91
2023/06/10 15:58:33;;;;;;;10.60;7.63;;;;;;;;;;6150613;28;19914;-91
2023/06/10 16:01:33;;;;;;;9.57;7.90;;;;;;;;;;6169862;28;20038;-91
2023/06/10 16:04:34;;;;;;;10.70;7.87;;;;;;;;;;6156335;28;20027;-91
2023/06/10 16:07:34;;;;;;;11.27;8.97;;;;;;;;;;6173878;28;20066;-92
2023/06/10 16:10:35;;;;;;;10.77;8.47;;;;;;;;;;6152277;28;20092;-91
2023/06/10 16:13:35;;;;;;;11.80;9.43;;;;;;;;;;6161981;28;20019;-89
2023/06/10 16:16:35;;;;;;;10.97;9.37;;;;;;;;;;6165366;28;20089;-90
2023/06/10 16:19:35;;;;;;;12.80;10.47;;;;;;;;;;6153251;28;20031;-92
2023/06/10 16:22:36;;;;;;;11.50;8.57;;;;;;;;;;6167929;28;20114;-91
2023/06/10 16:25:37;;;;;;;12.90;9.07;;;;;;;;;;6145846;28;20027;-91
2023/06/10 16:28:38;;;;;;;9.77;8.32;;;;;;;;;;6164677;28;20031;-92
2023/06/10 16:31:38;;;;;;;8.73;6.97;;;;;;;;;;6171488;28;20021;-91
2023/06/10 16:34:39;;;;;;;10.40;7.03;;;;;;;;;;6153961;28;20526;-91
2023/06/10 16:37:39;;;;;;;11.80;6.63;;;;;;;;;;6159813;28;20454;-91
2023/06/10 16:40:40;;;;;;;13.83;6.70;;;;;;;;;;6152727;28;20036;-92
2023/06/10 16:43:41;;;;;;;10.13;7.28;;;;;;;;;;6152428;28;20023;-91
2023/06/10 16:46:41;;;;;;;7.70;5.30;;;;;;;;;;6155182;28;20485;-92
2023/06/10 16:49:41;;;;;;;9.17;6.00;;;;;;;;;;6161668;28;20055;-89
2023/06/10 16:52:42;;;;;;;11.87;9.57;;;;;;;;;;6138276;28;20519;-89
2023/06/10 16:55:42;;;;;;;8.43;5.80;;;;;;;;;;6132570;28;20132;-90
2023/06/10 16:58:42;;;;;;;11.33;8.33;;;;;;;;;;6142354;29;20030;-89
2023/06/10 17:01:43;;;;;;;9.50;6.27;;;;;;;;;;6154504;28;20102;-89
2023/06/10 17:04:44;;;;;;;8.23;6.70;;;;;;;;;;6135855;28;20019;-89
2023/06/10 17:07:47;;;;;;;10.80;6.72;;;;;;;;;;6139197;28;20464;-89
2023/06/10 17:10:47;;;;;;;8.23;5.78;;;;;;;;;;6166758;28;20039;-90
2023/06/10 17:13:47;;;;;;;8.00;4.70;;;;;;;;;;6148978;28;20039;-90
2023/06/10 17:16:48;;;;;;;9.20;6.90;;;;;;;;;;6164558;28;20085;-91
2023/06/10 17:19:49;;;;;;;9.47;6.37;;;;;;;;;;6176485;28;20019;-89
2023/06/10 17:22:49;;;;;;;7.73;5.27;;;;;;;;;;6133894;28;20082;-91
2023/06/10 17:25:49;;;;;;;14.37;10.77;;;;;;;;;;6132732;28;20460;-90
2023/06/10 17:28:50;;;;;;;23.73;18.30;;;;;;;;;;6158626;28;20430;-90
2023/06/10 17:31:50;;;;;;;11.77;7.27;;;;;;;;;;6137375;28;20083;-91
2023/06/10 17:34:54;;;;;;;7.20;4.40;;;;;;;;;;6132409;28;20027;-90
2023/06/10 17:37:54;;;;;;;9.15;4.75;;;;;;;;;;6142317;28;20030;-91
2023/06/10 17:40:56;;;;;;;12.33;8.17;;;;;;;;;;6143741;28;20038;-91
2023/06/10 17:43:57;;;;;;;7.10;5.00;;;;;;;;;;6148040;28;20026;-91
2023/06/10 17:46:57;;;;;;;7.07;4.97;;;;;;;;;;6140687;28;20019;-91
2023/06/10 17:49:58;;;;;;;6.63;3.37;;;;;;;;;;6145810;28;20070;-91
2023/06/10 17:52:59;;;;;;;26.83;16.90;;;;;;;;;;6157383;28;20389;-91
2023/06/10 17:56:01;;;;;;;7.57;4.47;;;;;;;;;;6139528;28;20460;-91
2023/06/10 17:59:01;;;;;;;6.38;4.20;;;;;;;;;;6159105;28;20502;-90
2023/06/10 18:02:01;;;;;;;42.50;25.80;;;;;;;;;;6138684;28;20123;-91
2023/06/10 18:05:02;;;;;;;28.80;16.27;;;;;;;;;;6147285;28;20046;-90
2023/06/10 18:08:02;;;;;;;20.13;10.93;;;;;;;;;;6145008;28;20019;-91
2023/06/10 18:11:03;;;;;;;11.70;6.93;;;;;;;;;;6148435;28;20047;-91
2023/06/10 18:14:03;;;;;;;111.60;62.87;;;;;;;;;;6139350;28;20030;-91
2023/06/10 18:17:03;;;;;;;14.90;9.13;;;;;;;;;;6153654;28;20053;-90
2023/06/10 18:20:04;;;;;;;66.60;46.53;;;;;;;;;;6160058;28;20023;-90
2023/06/10 18:23:04;;;;;;;57.00;38.47;;;;;;;;;;6154057;28;20019;-90
2023/06/10 18:26:04;;;;;;;7.20;4.77;;;;;;;;;;6152427;28;20023;-90